Kirklin, Indiana
Current Conditions -  °F | °C
As of 7:35 AM on Sunday 21 Dec 2014 (Local Time) from KFKR Reporting Station
Haze Haze  
Wind Chill: 17°   Ceiling: Unl
Heat Index: 24°   Visibility: 4mi
Dew Point: 24°   Wind: 6mph
Humidity: 100%   Direction: 120°ESE
Pressure: 30.29"   Gusts: NA
Location:  40.19°N, 86.36°W
Report Text: KFKR 211235Z AUTO 12005KT 4SM BR SCT050 M04/M04 A3029 RMK AO2 T10451045
Loading
Personal Weather Stations






























Interactive Weather Map New forecast layout! Learn more

10-Day Weather Forecast

Advertisements
Track Severe Weather on mobile